Time;durP1;ratioP1;P1;durP2;ratioP2;P2;SDS_P1;SDS_P2;PMS_P1;PMS_P2;Temp;Humidity;BMP_temperature;BMP_pressure;BME280_temperature;BME280_humidity;BME280_pressure;Samples;Min_cycle;Max_cycle;Signal;HPM_P1;HPM_P2
2022/01/04 00:01:13;;;;;;;13.13;9.50;;;;;;;;;;5072337;28;20683;-64
2022/01/04 00:03:40;;;;;;;13.30;10.33;;;;;;;;;;5072313;28;20254;-65
2022/01/04 00:06:08;;;;;;;13.80;10.30;;;;;;;;;;5072407;28;20696;-65
2022/01/04 00:08:34;;;;;;;13.87;10.77;;;;;;;;;;5072381;28;20199;-65
2022/01/04 00:11:14;;;;;;;15.20;10.53;;;;;;;;;;5072374;28;20712;-64
2022/01/04 00:13:40;;;;;;;12.67;10.33;;;;;;;;;;5072159;28;20195;-64
2022/01/04 00:16:07;;;;;;;12.77;10.53;;;;;;;;;;5072127;28;20215;-66
2022/01/04 00:18:34;;;;;;;12.13;10.70;;;;;;;;;;5072295;28;20274;-63
2022/01/04 00:21:00;;;;;;;13.60;10.90;;;;;;;;;;5072226;28;20211;-63
2022/01/04 00:23:27;;;;;;;14.20;10.33;;;;;;;;;;5072345;28;20237;-64
2022/01/04 00:25:54;;;;;;;13.60;10.30;;;;;;;;;;5071846;28;20207;-63
2022/01/04 00:28:20;;;;;;;13.83;10.43;;;;;;;;;;5072052;28;20187;-63
2022/01/04 00:30:46;;;;;;;16.67;11.20;;;;;;;;;;5071994;28;20183;-62
2022/01/04 00:33:12;;;;;;;16.43;11.13;;;;;;;;;;5072090;28;20245;-65
2022/01/04 00:35:39;;;;;;;15.30;11.07;;;;;;;;;;5071919;28;20195;-65
2022/01/04 00:38:05;;;;;;;17.40;12.30;;;;;;;;;;5072018;28;20219;-65
2022/01/04 00:40:33;;;;;;;14.50;11.77;;;;;;;;;;5072192;28;20187;-67
2022/01/04 00:42:59;;;;;;;15.93;11.47;;;;;;;;;;5071937;28;20689;-66
2022/01/04 00:45:25;;;;;;;15.03;11.30;;;;;;;;;;5071938;28;20502;-69
2022/01/04 00:50:20;;;;;;;20.00;11.90;;;;;;;;;;5071750;28;20191;-70
2022/01/04 00:52:46;;;;;;;15.87;12.23;;;;;;;;;;5071794;28;20281;-71
2022/01/04 00:55:12;;;;;;;15.53;12.60;;;;;;;;;;5071830;28;20687;-71
2022/01/04 00:57:40;;;;;;;15.63;13.20;;;;;;;;;;5071555;28;20650;-70
2022/01/04 01:00:07;;;;;;;15.70;12.30;;;;;;;;;;5071739;28;20207;-69
2022/01/04 01:02:33;;;;;;;16.60;12.70;;;;;;;;;;5069762;28;20297;-76
2022/01/04 01:04:59;;;;;;;18.70;12.20;;;;;;;;;;5071812;28;20192;-68
2022/01/04 01:07:25;;;;;;;17.70;13.37;;;;;;;;;;5071795;28;20202;-68
2022/01/04 01:10:21;;;;;;;15.93;12.90;;;;;;;;;;5071659;28;20298;-65
2022/01/04 01:12:49;;;;;;;14.93;12.67;;;;;;;;;;5071753;28;20212;-68
2022/01/04 01:15:15;;;;;;;17.87;13.50;;;;;;;;;;5071631;28;20203;-67
2022/01/04 01:17:41;;;;;;;16.30;12.73;;;;;;;;;;5071471;28;20195;-74
2022/01/04 01:20:09;;;;;;;16.77;13.23;;;;;;;;;;5070110;28;20199;-68
2022/01/04 01:22:35;;;;;;;17.40;13.40;;;;;;;;;;5071529;28;20322;-67
2022/01/04 01:25:01;;;;;;;15.07;13.37;;;;;;;;;;5071556;28;20734;-67
2022/01/04 01:27:27;;;;;;;18.00;12.47;;;;;;;;;;5069857;28;20220;-67
2022/01/04 01:29:54;;;;;;;16.90;13.73;;;;;;;;;;5071430;28;20203;-67
2022/01/04 01:32:20;;;;;;;16.57;12.80;;;;;;;;;;5071659;28;20676;-68
2022/01/04 01:34:46;;;;;;;17.00;13.67;;;;;;;;;;5071484;28;20575;-67
2022/01/04 01:37:12;;;;;;;16.50;13.20;;;;;;;;;;5071383;28;20195;-67
2022/01/04 01:39:38;;;;;;;16.90;14.20;;;;;;;;;;5071416;28;20532;-68
2022/01/04 01:42:05;;;;;;;17.37;13.70;;;;;;;;;;5071215;28;20237;-67
2022/01/04 01:44:31;;;;;;;14.77;12.73;;;;;;;;;;5071369;28;20191;-68
2022/01/04 01:46:59;;;;;;;16.87;12.70;;;;;;;;;;5071210;28;20231;-68
2022/01/04 01:49:25;;;;;;;15.87;12.47;;;;;;;;;;5071311;28;20195;-65
2022/01/04 01:51:51;;;;;;;20.10;13.97;;;;;;;;;;5071274;28;20275;-65
2022/01/04 01:54:17;;;;;;;19.00;13.67;;;;;;;;;;5071347;28;20211;-65
2022/01/04 01:56:43;;;;;;;16.13;13.97;;;;;;;;;;5071288;28;20324;-65
2022/01/04 01:59:09;;;;;;;17.10;14.00;;;;;;;;;;5071315;28;20274;-65
2022/01/04 02:01:35;;;;;;;17.87;14.20;;;;;;;;;;5071189;28;20231;-66
2022/01/04 02:04:02;;;;;;;19.60;14.17;;;;;;;;;;5071145;28;20230;-65
2022/01/04 02:06:29;;;;;;;19.93;14.47;;;;;;;;;;5071223;28;20231;-67
2022/01/04 02:08:55;;;;;;;19.53;14.73;;;;;;;;;;5071403;28;20215;-68
2022/01/04 02:11:22;;;;;;;19.80;14.93;;;;;;;;;;5074739;28;20673;-65
2022/01/04 02:13:48;;;;;;;16.50;14.57;;;;;;;;;;5074789;28;20188;-65
2022/01/04 02:16:14;;;;;;;21.67;14.47;;;;;;;;;;5074869;28;20199;-66
2022/01/04 02:18:40;;;;;;;21.03;14.93;;;;;;;;;;5074777;28;20457;-66
2022/01/04 02:21:07;;;;;;;23.30;14.93;;;;;;;;;;5074595;28;20737;-65
2022/01/04 02:23:33;;;;;;;16.53;14.43;;;;;;;;;;5074636;28;20689;-67
2022/01/04 02:26:00;;;;;;;18.27;13.80;;;;;;;;;;5074503;28;20249;-67
2022/01/04 02:28:26;;;;;;;20.23;14.67;;;;;;;;;;5074476;28;20696;-66
2022/01/04 02:30:52;;;;;;;21.93;14.93;;;;;;;;;;5074354;28;20204;-66
2022/01/04 02:33:18;;;;;;;19.70;15.70;;;;;;;;;;5074675;28;20202;-67
2022/01/04 02:35:44;;;;;;;18.03;15.10;;;;;;;;;;5074358;28;20426;-66
2022/01/04 02:38:12;;;;;;;17.73;15.30;;;;;;;;;;5074426;28;20192;-67
2022/01/04 02:40:38;;;;;;;19.20;15.70;;;;;;;;;;5074340;28;20242;-67
2022/01/04 02:43:04;;;;;;;20.90;15.00;;;;;;;;;;5074194;28;20231;-67
2022/01/04 02:45:30;;;;;;;18.00;14.77;;;;;;;;;;5074183;28;20588;-66
2022/01/04 02:47:56;;;;;;;19.57;14.53;;;;;;;;;;5074079;28;20200;-67
2022/01/04 02:50:22;;;;;;;17.97;16.00;;;;;;;;;;5074167;28;20195;-66
2022/01/04 02:52:49;;;;;;;20.07;15.67;;;;;;;;;;5074051;28;20571;-66
2022/01/04 02:55:17;;;;;;;20.37;16.33;;;;;;;;;;5072393;28;20461;-67
2022/01/04 02:57:43;;;;;;;19.20;14.83;;;;;;;;;;5073975;28;20633;-67
2022/01/04 03:00:10;;;;;;;19.57;16.00;;;;;;;;;;5073754;28;20191;-66
2022/01/04 03:02:36;;;;;;;19.67;15.90;;;;;;;;;;5073623;28;20259;-67
2022/01/04 03:05:03;;;;;;;21.30;15.47;;;;;;;;;;5072151;28;20203;-66
2022/01/04 03:07:29;;;;;;;23.77;16.60;;;;;;;;;;5073838;28;20286;-66
2022/01/04 03:09:55;;;;;;;22.23;17.03;;;;;;;;;;5073569;28;20294;-67
2022/01/04 03:12:22;;;;;;;17.93;15.33;;;;;;;;;;5073791;28;20196;-67
2022/01/04 03:14:48;;;;;;;21.37;16.60;;;;;;;;;;5073596;28;20623;-66
2022/01/04 03:17:14;;;;;;;18.27;15.47;;;;;;;;;;5073745;28;20227;-67
2022/01/04 03:19:40;;;;;;;19.67;15.67;;;;;;;;;;5073565;28;20203;-66
2022/01/04 03:22:06;;;;;;;19.93;16.00;;;;;;;;;;5073398;28;20188;-67
2022/01/04 03:24:32;;;;;;;20.00;16.40;;;;;;;;;;5073577;28;20250;-67
2022/01/04 03:26:58;;;;;;;19.77;15.90;;;;;;;;;;5073318;28;20661;-67
2022/01/04 03:29:26;;;;;;;19.50;15.73;;;;;;;;;;5073385;28;20223;-67
2022/01/04 03:31:53;;;;;;;21.87;16.70;;;;;;;;;;5073168;28;20278;-67
2022/01/04 03:34:19;;;;;;;18.00;15.60;;;;;;;;;;5073381;28;20196;-67
2022/01/04 03:36:45;;;;;;;18.07;16.03;;;;;;;;;;5073263;28;20233;-67
2022/01/04 03:39:12;;;;;;;20.93;15.67;;;;;;;;;;5073223;28;20196;-66
2022/01/04 03:41:39;;;;;;;21.43;16.30;;;;;;;;;;5072885;28;20188;-66
2022/01/04 03:44:06;;;;;;;20.13;16.57;;;;;;;;;;5072670;28;20271;-66
2022/01/04 03:46:33;;;;;;;18.50;16.27;;;;;;;;;;5073161;28;20282;-66
2022/01/04 03:48:59;;;;;;;23.10;16.03;;;;;;;;;;5072641;28;20685;-66
2022/01/04 03:51:25;;;;;;;19.63;16.30;;;;;;;;;;5072569;28;20704;-66
2022/01/04 03:53:51;;;;;;;22.07;16.53;;;;;;;;;;5072412;28;20211;-66
2022/01/04 03:56:17;;;;;;;20.63;17.37;;;;;;;;;;5072887;28;20200;-67
2022/01/04 03:58:43;;;;;;;23.30;17.97;;;;;;;;;;5072514;28;20215;-66
2022/01/04 04:01:09;;;;;;;22.30;17.20;;;;;;;;;;5072189;28;20196;-66
2022/01/04 04:03:37;;;;;;;26.53;18.80;;;;;;;;;;5072462;28;20277;-66
2022/01/04 04:06:03;;;;;;;22.47;18.30;;;;;;;;;;5072403;28;20261;-66
2022/01/04 04:08:29;;;;;;;23.17;18.67;;;;;;;;;;5072314;28;20282;-65
2022/01/04 04:10:55;;;;;;;22.40;18.77;;;;;;;;;;5072197;28;20207;-66
2022/01/04 04:13:21;;;;;;;29.50;21.07;;;;;;;;;;5072285;28;20200;-66
2022/01/04 04:15:47;;;;;;;23.63;20.37;;;;;;;;;;5072341;28;20196;-66
2022/01/04 04:18:13;;;;;;;22.93;19.60;;;;;;;;;;5072187;28;20196;-65
2022/01/04 04:20:42;;;;;;;23.20;20.27;;;;;;;;;;5072003;28;20665;-65
2022/01/04 04:23:08;;;;;;;23.47;20.03;;;;;;;;;;5072013;28;20285;-65
2022/01/04 04:25:34;;;;;;;27.03;20.17;;;;;;;;;;5072009;28;20665;-65
2022/01/04 04:28:00;;;;;;;24.87;19.90;;;;;;;;;;5072049;28;20195;-65
2022/01/04 04:30:26;;;;;;;23.73;21.23;;;;;;;;;;5072016;28;20202;-66
2022/01/04 04:32:52;;;;;;;25.03;20.00;;;;;;;;;;5071467;28;20689;-65
2022/01/04 04:35:18;;;;;;;25.50;20.83;;;;;;;;;;5072221;28;20249;-65
2022/01/04 04:37:46;;;;;;;22.93;20.27;;;;;;;;;;5072033;28;20191;-65
2022/01/04 04:40:12;;;;;;;23.07;20.57;;;;;;;;;;5071753;28;20203;-66
2022/01/04 04:42:38;;;;;;;25.17;20.87;;;;;;;;;;5071813;28;20318;-65
2022/01/04 04:45:05;;;;;;;26.30;20.57;;;;;;;;;;5071684;28;20253;-66
2022/01/04 04:47:31;;;;;;;22.83;19.90;;;;;;;;;;5071906;28;20749;-66
2022/01/04 04:49:57;;;;;;;24.53;20.73;;;;;;;;;;5071667;28;20227;-66
2022/01/04 04:52:23;;;;;;;23.93;19.87;;;;;;;;;;5071802;28;20195;-66
2022/01/04 04:54:50;;;;;;;20.80;18.43;;;;;;;;;;5071694;28;20577;-65
2022/01/04 04:57:16;;;;;;;22.70;18.70;;;;;;;;;;5071787;28;20210;-65
2022/01/04 04:59:42;;;;;;;22.43;19.17;;;;;;;;;;5071654;28;20245;-66
2022/01/04 05:02:09;;;;;;;21.63;19.37;;;;;;;;;;5071365;28;20489;-66
2022/01/04 05:04:35;;;;;;;21.57;18.47;;;;;;;;;;5071652;28;20251;-66
2022/01/04 05:07:01;;;;;;;25.10;19.27;;;;;;;;;;5071624;28;20199;-66
2022/01/04 05:09:27;;;;;;;20.37;17.67;;;;;;;;;;5071577;28;20196;-66
2022/01/04 05:11:54;;;;;;;19.17;17.17;;;;;;;;;;5071277;28;20562;-66
2022/01/04 05:14:21;;;;;;;19.67;17.57;;;;;;;;;;5071368;28;20719;-64
2022/01/04 05:16:47;;;;;;;22.33;18.53;;;;;;;;;;5071660;28;20199;-66
2022/01/04 05:19:13;;;;;;;19.97;17.87;;;;;;;;;;5071384;28;20192;-67
2022/01/04 05:21:39;;;;;;;20.27;17.47;;;;;;;;;;5071324;28;20602;-65
2022/01/04 05:24:06;;;;;;;18.07;16.20;;;;;;;;;;5071292;28;20227;-65
2022/01/04 05:26:35;;;;;;;19.33;17.30;;;;;;;;;;5071523;28;20206;-66
2022/01/04 05:29:03;;;;;;;18.57;16.77;;;;;;;;;;5071344;28;20199;-66
2022/01/04 05:31:29;;;;;;;19.93;17.27;;;;;;;;;;5071265;28;20234;-65
2022/01/04 05:33:55;;;;;;;19.13;17.13;;;;;;;;;;5071279;28;20229;-65
2022/01/04 05:36:21;;;;;;;21.37;17.43;;;;;;;;;;5071143;28;20219;-66
2022/01/04 05:38:47;;;;;;;19.73;16.23;;;;;;;;;;5071289;28;20195;-65
2022/01/04 05:41:13;;;;;;;19.37;17.37;;;;;;;;;;5071071;28;20199;-64
2022/01/04 05:43:39;;;;;;;18.47;16.60;;;;;;;;;;5071133;28;20231;-65
2022/01/04 05:46:07;;;;;;;18.40;16.60;;;;;;;;;;5074871;28;20203;-66
2022/01/04 05:48:33;;;;;;;19.20;17.33;;;;;;;;;;5075191;28;20310;-65
2022/01/04 05:50:59;;;;;;;19.33;17.33;;;;;;;;;;5075150;28;20278;-66
2022/01/04 05:53:25;;;;;;;19.40;17.40;;;;;;;;;;5074952;28;20693;-66
2022/01/04 05:55:51;;;;;;;19.33;17.43;;;;;;;;;;5074936;28;20195;-67
2022/01/04 05:58:17;;;;;;;18.37;16.47;;;;;;;;;;5074704;28;20195;-66
2022/01/04 06:00:43;;;;;;;19.40;16.87;;;;;;;;;;5074788;28;20567;-65
2022/01/04 06:03:10;;;;;;;19.00;17.00;;;;;;;;;;5074370;28;20243;-65
2022/01/04 06:05:36;;;;;;;24.17;19.53;;;;;;;;;;5074678;28;20207;-65
2022/01/04 06:08:02;;;;;;;22.33;18.63;;;;;;;;;;5074577;28;20188;-66
2022/01/04 06:10:36;;;;;;;19.63;17.73;;;;;;;;;;5074438;28;20215;-66
2022/01/04 06:15:28;;;;;;;24.40;17.80;;;;;;;;;;5074456;28;20218;-65
2022/01/04 06:17:54;;;;;;;21.17;18.93;;;;;;;;;;5074385;28;20191;-66
2022/01/04 06:20:22;;;;;;;20.20;18.30;;;;;;;;;;5074358;28;20207;-66
2022/01/04 06:22:48;;;;;;;22.40;20.10;;;;;;;;;;5074429;28;20219;-66
2022/01/04 06:25:15;;;;;;;20.30;18.20;;;;;;;;;;5074271;28;20195;-66
2022/01/04 06:27:41;;;;;;;22.43;18.43;;;;;;;;;;5074221;28;20196;-66
2022/01/04 06:30:08;;;;;;;18.73;16.77;;;;;;;;;;5074066;28;20475;-66
2022/01/04 06:32:36;;;;;;;20.20;17.93;;;;;;;;;;5074248;28;20560;-67
2022/01/04 06:35:02;;;;;;;20.87;18.77;;;;;;;;;;5074138;28;20199;-66
2022/01/04 06:37:29;;;;;;;19.97;17.87;;;;;;;;;;5074144;28;20203;-66
2022/01/04 06:39:55;;;;;;;21.70;18.57;;;;;;;;;;5073963;28;20274;-66
2022/01/04 06:42:21;;;;;;;21.17;17.93;;;;;;;;;;5073755;28;20585;-65
2022/01/04 06:44:47;;;;;;;20.50;18.33;;;;;;;;;;5073966;28;20201;-66
2022/01/04 06:47:13;;;;;;;19.63;17.00;;;;;;;;;;5073735;28;20195;-66
2022/01/04 06:49:39;;;;;;;21.63;19.43;;;;;;;;;;5073679;28;20214;-66
2022/01/04 06:52:06;;;;;;;21.57;18.13;;;;;;;;;;5073918;28;20278;-66
2022/01/04 06:54:33;;;;;;;19.40;17.40;;;;;;;;;;5073853;28;20238;-67
2022/01/04 06:56:59;;;;;;;22.33;18.27;;;;;;;;;;5073397;28;20208;-65
2022/01/04 06:59:25;;;;;;;19.80;17.00;;;;;;;;;;5073563;28;20192;-65
2022/01/04 07:01:51;;;;;;;20.03;18.03;;;;;;;;;;5073462;28;20744;-66
2022/01/04 07:04:17;;;;;;;19.57;17.67;;;;;;;;;;5073556;28;20231;-65
2022/01/04 07:06:43;;;;;;;19.13;17.27;;;;;;;;;;5073470;28;20665;-65
2022/01/04 07:09:09;;;;;;;20.53;18.47;;;;;;;;;;5073571;28;20207;-66
2022/01/04 07:11:37;;;;;;;21.53;17.50;;;;;;;;;;5073501;28;20195;-66
2022/01/04 07:14:03;;;;;;;20.23;18.10;;;;;;;;;;5073209;28;20202;-66
2022/01/04 07:16:30;;;;;;;19.27;17.23;;;;;;;;;;5073292;28;20206;-66
2022/01/04 07:18:56;;;;;;;22.10;19.03;;;;;;;;;;5073174;28;20222;-64
2022/01/04 07:21:22;;;;;;;20.37;18.33;;;;;;;;;;5073045;28;20215;-65
2022/01/04 07:23:48;;;;;;;20.50;18.17;;;;;;;;;;5073266;28;20220;-66
2022/01/04 07:26:15;;;;;;;20.67;18.43;;;;;;;;;;5073008;28;20203;-66
2022/01/04 07:28:43;;;;;;;20.90;18.60;;;;;;;;;;5072987;28;20715;-65
2022/01/04 07:31:13;;;;;;;21.67;19.40;;;;;;;;;;5073073;28;20192;-65
2022/01/04 07:33:39;;;;;;;20.07;17.83;;;;;;;;;;5072852;28;20214;-65
2022/01/04 07:36:08;;;;;;;19.93;17.93;;;;;;;;;;5073038;28;20215;-66
2022/01/04 07:38:35;;;;;;;22.63;20.23;;;;;;;;;;5073287;28;20199;-66
2022/01/04 07:41:01;;;;;;;22.67;19.67;;;;;;;;;;5072950;28;20537;-65
2022/01/04 07:43:27;;;;;;;24.10;19.47;;;;;;;;;;5072818;28;20266;-65
2022/01/04 07:45:54;;;;;;;23.13;19.10;;;;;;;;;;5072534;28;20238;-66
2022/01/04 07:48:21;;;;;;;21.97;18.47;;;;;;;;;;5072587;28;20290;-65
2022/01/04 07:50:47;;;;;;;22.30;19.93;;;;;;;;;;5072927;28;20195;-65
2022/01/04 07:53:13;;;;;;;24.00;19.20;;;;;;;;;;5072407;28;20219;-66
2022/01/04 07:55:39;;;;;;;22.50;19.80;;;;;;;;;;5072595;28;20231;-65
2022/01/04 07:58:05;;;;;;;22.53;20.13;;;;;;;;;;5072608;28;20278;-65
2022/01/04 08:00:31;;;;;;;23.70;20.00;;;;;;;;;;5072596;28;20290;-66
2022/01/04 08:02:59;;;;;;;22.10;19.80;;;;;;;;;;5072265;28;20274;-66
2022/01/04 08:05:25;;;;;;;22.23;18.97;;;;;;;;;;5072307;28;20200;-66
2022/01/04 08:07:51;;;;;;;22.50;20.07;;;;;;;;;;5071863;28;20546;-66
2022/01/04 08:10:17;;;;;;;28.17;20.37;;;;;;;;;;5072317;28;20849;-68
2022/01/04 08:12:43;;;;;;;22.33;19.67;;;;;;;;;;5072147;28;20218;-66
2022/01/04 08:15:10;;;;;;;22.77;19.53;;;;;;;;;;5072235;28;20200;-68
2022/01/04 08:17:36;;;;;;;25.17;19.57;;;;;;;;;;5072075;28;20204;-66
2022/01/04 08:20:04;;;;;;;24.67;20.23;;;;;;;;;;5072229;28;20202;-66
2022/01/04 08:22:34;;;;;;;22.37;18.80;;;;;;;;;;5071991;28;20208;-66
2022/01/04 08:25:01;;;;;;;24.27;19.93;;;;;;;;;;5072049;28;20666;-65
2022/01/04 08:27:27;;;;;;;24.53;20.67;;;;;;;;;;5071943;28;20661;-66
2022/01/04 08:29:53;;;;;;;27.07;19.90;;;;;;;;;;5072086;28;20207;-67
2022/01/04 08:32:19;;;;;;;23.10;19.60;;;;;;;;;;5071949;28;20192;-65
2022/01/04 08:34:46;;;;;;;22.57;20.17;;;;;;;;;;5071960;28;20578;-67
2022/01/04 08:37:13;;;;;;;22.70;19.73;;;;;;;;;;5071984;28;20195;-65
2022/01/04 08:39:39;;;;;;;25.57;19.40;;;;;;;;;;5071911;28;20203;-66
2022/01/04 08:42:06;;;;;;;22.80;19.13;;;;;;;;;;5071871;28;20622;-67
2022/01/04 08:44:41;;;;;;;25.33;20.23;;;;;;;;;;5071710;28;20720;-66
2022/01/04 08:47:08;;;;;;;21.00;18.77;;;;;;;;;;5071769;28;20222;-66
2022/01/04 08:49:34;;;;;;;23.97;18.93;;;;;;;;;;5071731;28;20203;-67
2022/01/04 08:52:00;;;;;;;21.40;19.13;;;;;;;;;;5071694;28;20219;-67
2022/01/04 08:54:28;;;;;;;24.77;19.67;;;;;;;;;;5071552;28;20763;-67
2022/01/04 08:56:54;;;;;;;24.83;18.83;;;;;;;;;;5071599;28;20302;-66
2022/01/04 08:59:20;;;;;;;20.47;18.10;;;;;;;;;;5071528;28;20295;-65
2022/01/04 09:01:46;;;;;;;20.93;18.63;;;;;;;;;;5071928;28;20289;-67
2022/01/04 09:04:12;;;;;;;21.03;18.73;;;;;;;;;;5071467;28;20227;-66
2022/01/04 09:06:38;;;;;;;21.97;17.77;;;;;;;;;;5071507;28;20227;-65
2022/01/04 09:09:04;;;;;;;21.37;18.83;;;;;;;;;;5071533;28;20229;-65
2022/01/04 09:11:32;;;;;;;22.83;19.50;;;;;;;;;;5071447;28;20251;-64
2022/01/04 09:14:18;;;;;;;20.90;18.77;;;;;;;;;;5071330;28;20670;-64
2022/01/04 09:19:29;;;;;;;25.60;18.13;;;;;;;;;;5074543;28;20194;-65
2022/01/04 09:21:55;;;;;;;25.07;18.23;;;;;;;;;;5075483;28;20493;-65
2022/01/04 09:24:21;;;;;;;22.40;19.00;;;;;;;;;;5075369;28;20227;-66
2022/01/04 09:26:49;;;;;;;22.27;18.60;;;;;;;;;;5075454;28;20559;-66
2022/01/04 09:29:17;;;;;;;22.33;19.80;;;;;;;;;;5075275;28;20298;-66
2022/01/04 09:31:43;;;;;;;20.07;17.93;;;;;;;;;;5075361;28;20199;-63
2022/01/04 09:34:09;;;;;;;20.97;18.43;;;;;;;;;;5074733;28;20261;-64
2022/01/04 09:36:37;;;;;;;22.63;19.33;;;;;;;;;;5075311;28;20229;-67
2022/01/04 09:39:05;;;;;;;21.83;18.80;;;;;;;;;;5075398;28;20235;-64
2022/01/04 09:41:31;;;;;;;23.37;18.83;;;;;;;;;;5075021;28;20199;-64
2022/01/04 09:43:58;;;;;;;23.63;19.13;;;;;;;;;;5074868;28;20231;-62
2022/01/04 09:46:25;;;;;;;22.50;18.73;;;;;;;;;;5074885;28;20222;-66
2022/01/04 09:48:51;;;;;;;22.67;17.90;;;;;;;;;;5075100;28;20212;-64
2022/01/04 09:51:18;;;;;;;23.03;18.73;;;;;;;;;;5074775;28;20669;-65
2022/01/04 09:53:44;;;;;;;21.57;18.93;;;;;;;;;;5074764;28;20211;-62
2022/01/04 09:56:10;;;;;;;21.60;17.63;;;;;;;;;;5074884;28;20298;-63
2022/01/04 09:58:36;;;;;;;22.87;18.00;;;;;;;;;;5074797;28;20203;-63
2022/01/04 10:01:03;;;;;;;20.67;17.77;;;;;;;;;;5074866;28;20203;-62
2022/01/04 10:03:31;;;;;;;23.37;18.60;;;;;;;;;;5074841;28;20218;-67
2022/01/04 10:06:01;;;;;;;21.67;18.23;;;;;;;;;;5074801;28;20203;-64
2022/01/04 10:08:27;;;;;;;19.60;17.60;;;;;;;;;;5074672;28;20278;-68
2022/01/04 10:11:00;;;;;;;22.53;18.97;;;;;;;;;;5074688;28;20207;-68
2022/01/04 10:13:29;;;;;;;21.33;18.27;;;;;;;;;;5074392;28;20234;-64
2022/01/04 10:15:55;;;;;;;20.80;17.87;;;;;;;;;;5074563;28;20196;-65
2022/01/04 10:18:24;;;;;;;22.87;18.80;;;;;;;;;;5074250;28;20671;-64
2022/01/04 10:20:52;;;;;;;19.50;17.40;;;;;;;;;;5074646;28;20231;-63
2022/01/04 10:23:19;;;;;;;20.37;17.23;;;;;;;;;;5074628;28;20764;-64
2022/01/04 10:25:46;;;;;;;21.47;18.23;;;;;;;;;;5074667;28;20199;-63
2022/01/04 10:28:12;;;;;;;21.10;17.23;;;;;;;;;;5074476;28;20298;-64
2022/01/04 10:30:39;;;;;;;20.67;17.77;;;;;;;;;;5073718;28;20299;-64
2022/01/04 10:33:06;;;;;;;21.20;16.80;;;;;;;;;;5074328;28;20192;-64
2022/01/04 10:35:36;;;;;;;23.27;17.70;;;;;;;;;;5073903;28;20205;-65
2022/01/04 10:38:09;;;;;;;22.70;17.73;;;;;;;;;;5075672;28;20199;-65
2022/01/04 10:40:36;;;;;;;22.23;16.50;;;;;;;;;;5074215;28;20200;-64
2022/01/04 10:43:07;;;;;;;20.13;16.00;;;;;;;;;;5074277;28;20187;-64
2022/01/04 10:45:34;;;;;;;19.40;15.30;;;;;;;;;;5074169;28;20624;-64
2022/01/04 10:48:09;;;;;;;20.10;15.40;;;;;;;;;;5074122;28;20223;-64
2022/01/04 10:50:37;;;;;;;18.73;14.83;;;;;;;;;;5072286;28;20199;-65
2022/01/04 10:53:03;;;;;;;21.33;15.30;;;;;;;;;;5073437;28;20207;-64
2022/01/04 10:55:31;;;;;;;23.03;15.80;;;;;;;;;;5073656;28;20249;-66
2022/01/04 10:57:57;;;;;;;19.73;14.83;;;;;;;;;;5074022;28;20207;-65
2022/01/04 11:00:24;;;;;;;20.30;15.13;;;;;;;;;;5073704;28;20245;-65
2022/01/04 11:02:50;;;;;;;18.63;14.83;;;;;;;;;;5073638;28;20236;-65
2022/01/04 11:05:17;;;;;;;17.83;14.07;;;;;;;;;;5073781;28;20211;-65
2022/01/04 11:08:00;;;;;;;15.77;12.67;;;;;;;;;;5073756;28;20232;-65
2022/01/04 11:10:28;;;;;;;20.63;15.03;;;;;;;;;;5073595;28;20203;-65
2022/01/04 11:12:56;;;;;;;14.80;13.20;;;;;;;;;;5073490;28;20256;-65
2022/01/04 11:15:22;;;;;;;15.27;12.53;;;;;;;;;;5073302;28;20279;-65
2022/01/04 11:17:48;;;;;;;18.43;12.83;;;;;;;;;;5073737;28;20191;-65
2022/01/04 11:20:14;;;;;;;17.47;12.77;;;;;;;;;;5073491;28;20222;-65
2022/01/04 11:22:40;;;;;;;15.30;12.53;;;;;;;;;;5073362;28;20192;-65
2022/01/04 11:25:07;;;;;;;14.90;12.83;;;;;;;;;;5073101;28;20723;-65
2022/01/04 11:27:36;;;;;;;18.50;12.63;;;;;;;;;;5073174;28;20580;-64
2022/01/04 11:30:02;;;;;;;17.27;12.43;;;;;;;;;;5073405;28;20670;-64
2022/01/04 11:32:31;;;;;;;15.77;12.63;;;;;;;;;;5073287;28;20203;-64
2022/01/04 11:35:03;;;;;;;15.20;12.20;;;;;;;;;;5073348;28;20270;-64
2022/01/04 11:37:29;;;;;;;13.37;11.90;;;;;;;;;;5073210;28;20275;-64
2022/01/04 11:39:56;;;;;;;16.27;11.87;;;;;;;;;;5073103;28;20192;-64
2022/01/04 11:42:38;;;;;;;20.33;12.63;;;;;;;;;;5071880;28;20200;-63
2022/01/04 11:45:06;;;;;;;15.87;11.70;;;;;;;;;;5073074;28;20317;-65
2022/01/04 11:47:33;;;;;;;17.57;12.80;;;;;;;;;;5072881;28;20253;-64
2022/01/04 11:50:09;;;;;;;14.43;11.33;;;;;;;;;;5073055;28;20290;-65
2022/01/04 11:52:42;;;;;;;15.87;10.40;;;;;;;;;;5072537;28;20609;-64
2022/01/04 11:55:16;;;;;;;15.13;11.37;;;;;;;;;;5071363;28;20194;-65
2022/01/04 11:57:44;;;;;;;14.77;10.17;;;;;;;;;;5071439;28;20203;-65
2022/01/04 12:00:10;;;;;;;16.33;10.60;;;;;;;;;;5072272;28;20241;-65
2022/01/04 12:02:38;;;;;;;16.73;11.70;;;;;;;;;;5072159;28;20709;-65
2022/01/04 12:05:13;;;;;;;11.20;10.03;;;;;;;;;;5072327;28;20235;-64
2022/01/04 12:07:45;;;;;;;13.90;10.00;;;;;;;;;;5072079;28;20537;-65
2022/01/04 12:10:30;;;;;;;14.87;10.83;;;;;;;;;;5072227;28;20192;-65
2022/01/04 12:12:58;;;;;;;13.70;9.67;;;;;;;;;;5073086;28;20184;-64
2022/01/04 12:15:43;;;;;;;15.00;10.73;;;;;;;;;;5072694;28;20199;-65
2022/01/04 12:18:09;;;;;;;15.10;9.87;;;;;;;;;;5072232;28;20191;-64
2022/01/04 12:20:48;;;;;;;13.77;10.07;;;;;;;;;;5069854;28;20207;-64
2022/01/04 12:23:29;;;;;;;15.73;10.70;;;;;;;;;;5070311;28;20219;-64
2022/01/04 12:26:16;;;;;;;16.10;10.80;;;;;;;;;;5071825;28;20214;-64
2022/01/04 12:28:44;;;;;;;13.37;10.80;;;;;;;;;;5072057;28;20207;-64
2022/01/04 12:31:24;;;;;;;13.57;10.43;;;;;;;;;;5072075;28;20210;-63
2022/01/04 12:33:50;;;;;;;13.53;11.03;;;;;;;;;;5072149;28;20191;-62
2022/01/04 12:36:23;;;;;;;14.67;10.97;;;;;;;;;;5072089;28;20278;-63
2022/01/04 12:38:50;;;;;;;14.53;10.77;;;;;;;;;;5072175;28;20202;-63
2022/01/04 12:41:17;;;;;;;15.93;10.57;;;;;;;;;;5072306;28;20192;-63
2022/01/04 12:43:47;;;;;;;14.30;11.00;;;;;;;;;;5071831;28;20219;-65
2022/01/04 12:46:14;;;;;;;15.83;10.77;;;;;;;;;;5071773;28;20747;-63
2022/01/04 12:48:44;;;;;;;15.70;11.73;;;;;;;;;;5071794;28;20195;-64
2022/01/04 12:51:24;;;;;;;17.10;11.50;;;;;;;;;;5071576;28;20717;-61
2022/01/04 12:53:50;;;;;;;16.07;11.43;;;;;;;;;;5071378;28;20225;-61
2022/01/04 12:56:19;;;;;;;14.27;12.77;;;;;;;;;;5071870;28;20195;-62
2022/01/04 12:58:46;;;;;;;17.13;11.60;;;;;;;;;;5071541;28;20195;-59
2022/01/04 13:01:13;;;;;;;10.63;8.20;;;;;;;;;;5071475;28;20253;-58
2022/01/04 13:03:40;;;;;;;9.13;6.77;;;;;;;;;;5071188;28;20230;-61
2022/01/04 13:06:06;;;;;;;6.17;5.27;;;;;;;;;;5071407;28;20630;-61
2022/01/04 13:08:33;;;;;;;4.93;3.83;;;;;;;;;;5071743;28;20202;-62
2022/01/04 13:11:03;;;;;;;5.43;3.90;;;;;;;;;;5071785;28;20249;-61
2022/01/04 13:13:30;;;;;;;5.40;3.73;;;;;;;;;;5071717;28;20195;-63
2022/01/04 13:16:17;;;;;;;4.00;3.17;;;;;;;;;;5071706;28;20225;-65
2022/01/04 13:18:43;;;;;;;6.37;2.97;;;;;;;;;;5071696;28;20210;-62
2022/01/04 13:21:09;;;;;;;4.63;2.60;;;;;;;;;;5071796;28;20204;-62
2022/01/04 13:23:37;;;;;;;5.07;2.60;;;;;;;;;;5071576;28;20231;-63
2022/01/04 13:26:03;;;;;;;4.47;2.90;;;;;;;;;;5071809;28;20219;-62
2022/01/04 13:28:28;;;;;;;3.83;2.57;;;;;;;;;;5071526;28;20234;-71
2022/01/04 13:30:54;;;;;;;3.23;2.03;;;;;;;;;;5071499;28;20643;-62
2022/01/04 13:33:23;;;;;;;2.33;1.90;;;;;;;;;;5071306;28;20192;-62
2022/01/04 13:35:49;;;;;;;2.97;1.97;;;;;;;;;;5071231;28;20242;-62
2022/01/04 13:38:19;;;;;;;2.50;1.77;;;;;;;;;;5071454;28;20920;-62
2022/01/04 13:40:45;;;;;;;4.60;2.00;;;;;;;;;;5071431;28;20226;-63
2022/01/04 13:43:12;;;;;;;2.17;1.63;;;;;;;;;;5071291;28;20283;-63
2022/01/04 13:45:42;;;;;;;1.97;1.70;;;;;;;;;;5071279;28;20426;-63
2022/01/04 13:48:09;;;;;;;2.67;1.80;;;;;;;;;;5071363;28;20629;-63
2022/01/04 13:50:37;;;;;;;3.40;1.80;;;;;;;;;;5070747;28;20298;-63
2022/01/04 13:53:08;;;;;;;5.77;1.80;;;;;;;;;;5071463;28;20263;-63
2022/01/04 13:55:44;;;;;;;2.57;1.90;;;;;;;;;;5071414;28;20833;-62
2022/01/04 13:58:10;;;;;;;2.57;2.00;;;;;;;;;;5071223;28;20207;-61
2022/01/04 14:00:38;;;;;;;3.83;1.97;;;;;;;;;;5071181;28;20869;-62
2022/01/04 14:03:24;;;;;;;5.30;1.97;;;;;;;;;;5071070;28;20508;-62
2022/01/04 14:05:51;;;;;;;4.20;2.07;;;;;;;;;;5072761;28;20222;-63
2022/01/04 14:08:17;;;;;;;4.40;2.20;;;;;;;;;;5074992;28;20446;-63
2022/01/04 14:10:43;;;;;;;2.60;2.27;;;;;;;;;;5075058;28;20436;-63
2022/01/04 14:13:24;;;;;;;4.13;2.67;;;;;;;;;;5074875;28;20195;-63
2022/01/04 14:16:04;;;;;;;2.20;2.00;;;;;;;;;;5074855;28;20294;-64
2022/01/04 14:18:30;;;;;;;4.03;1.90;;;;;;;;;;5075076;28;20286;-64
2022/01/04 14:20:57;;;;;;;6.27;2.33;;;;;;;;;;5074852;28;20621;-63
2022/01/04 14:23:33;;;;;;;4.17;2.17;;;;;;;;;;5074663;28;20312;-64
2022/01/04 14:26:06;;;;;;;3.80;2.20;;;;;;;;;;5074774;28;20195;-62
2022/01/04 14:28:32;;;;;;;3.03;2.30;;;;;;;;;;5074471;28;20876;-62